This is the latest recevied weather packets stored in our database for station/object N5COP-13. If no packets are shown the sender has not sent any weather packets the latest 10 day(s).
| Time | Temp. | Humidity | Pressure | Rain* | Wind** | Luminosity | Snow |
|---|---|---|---|---|---|---|---|
| 1777817031 | 14.44° C | 58% | 1021.5 hPa | 0 mm | - | 299 W/m² | - |
| 1777816727 | 14.44° C | 59% | 1021.2 hPa | 0 mm | - | 283 W/m² | - |
| 1777816424 | 13.89° C | 61% | 1021.2 hPa | 0 mm | - | 270 W/m² | - |
| 1777816122 | 13.89° C | 63% | 1021.2 hPa | 0 mm | - | 255 W/m² | - |
| 1777815820 | 13.33° C | 64% | 1021.1 hPa | 0 mm | - | 238 W/m² | - |
| 1777815517 | 12.78° C | 66% | 1021 hPa | 0 mm | - | 223 W/m² | - |
| 1777815214 | 12.22° C | 67% | 1021.1 hPa | 0 mm | - | 205 W/m² | - |
| 1777814910 | 11.67° C | 68% | 1021 hPa | 0 mm | - | 187 W/m² | - |
| 1777814607 | 11.67° C | 69% | 1021 hPa | 0 mm | - | 172 W/m² | - |
| 1777814304 | 11.11° C | 70% | 1021 hPa | 0 mm | - | 158 W/m² | - |
| 1777814000 | 10.56° C | 71% | 1021 hPa | 0 mm | - | 142 W/m² | - |
| 1777813697 | 10° C | 72% | 1021.1 hPa | 0 mm | - | 128 W/m² | - |
| 1777813390 | 10° C | 73% | 1021 hPa | 0 mm | - | 112 W/m² | - |
| 1777813087 | 9.44° C | 74% | 1020.9 hPa | 0 mm | - | 96 W/m² | - |
| 1777812784 | 8.89° C | 75% | 1020.9 hPa | 0 mm | - | 84 W/m² | - |
| 1777812480 | 8.89° C | 75% | 1020.7 hPa | 0 mm | - | 72 W/m² | - |
| 1777812179 | 8.89° C | 76% | 1020.6 hPa | 0 mm | - | 62 W/m² | - |
| 1777811876 | 8.33° C | 77% | 1020.4 hPa | 0 mm | - | 52 W/m² | - |
| 1777811575 | 7.78° C | 77% | 1020.6 hPa | 0 mm | - | 44 W/m² | - |
| 1777811270 | 7.78° C | 78% | 1020.4 hPa | 0 mm | - | 36 W/m² | - |
| 1777810968 | 7.22° C | 78% | 1020.6 hPa | 0 mm | - | 28 W/m² | - |
| 1777810664 | 7.22° C | 79% | 1020.3 hPa | 0 mm | - | 23 W/m² | - |
| 1777810361 | 6.67° C | 79% | 1020.3 hPa | 0 mm | - | 17 W/m² | - |
| 1777810057 | 6.67° C | 78% | 1020.3 hPa | 0 mm | - | 12 W/m² | - |
| 1777809755 | 6.67° C | 78% | 1020.2 hPa | 0 mm | - | 8 W/m² | - |
* Rain latest hour (hover to see other rain measurements)
** Current wind speed in m/s (hover to see current wind gust speed)